Ana Sayfa
METAR-TAF:

METAR-TAF

Havaalanları :

Guilin, Çin

Enlem: 25-20N, Boylam: 110-18E, yükseklik: 166 m

Güncel hava durumu gözlemi

Rapor saat 17:00 UTC de 54 dakika önce yapıldı.
Rüzgar değişken yönden 2 kt
Sıcaklık 17°C
Nem 94%
Basınç 1017 hPa
Görüş mesafesi: 6000 m
5000 ft yükseklikte az bulutlu
6600 ft yükseklikte parçalı çok bulutlu

METAR: ZGKL 251700Z VRB01MPS 6000 FEW050 BKN066 17/16 Q1017 NOSIG

Saat: 01:54 (17:54 UTC)

Tahmin

Rapor saat 15:11 UTC de 2 saat ve 43 dakika önce yapıldı.
Ayın 25'si saat 18 UTC'den ayın 26'si saat 18 UTC'ye kadar geçerli Tahmin
Rüzgar kuzeydoğudan 6 kt
Görüş mesafesi: 5000 m
6000 ft yükseklikte parçalı çok bulutlu
Pus

TAF: ZGKL 251511Z 2518/2618 05003MPS 5000 BR BKN060 TX24/2607Z TN15/2522Z

4.000'den fazla havaalanı için hava durumu gözlemleri ve tahminleri (METAR ve TAF raporları).

Kullanılabilir istasyonlar harita üzerinde sarı ve kırmızı noktalarla gösterilir.

İstasyonun adını görmek için fareyi noktanın üzerinde gezdirin.

Sonrasında hava gözlem ve tahminlerini görmek için tıklayın.

Haritayı değiştirmek için: yaklaştırmak için siyah artı işaretli yeşil düğmeye ve uzaklaştırmak için de eksi işaretli düğmeye hızla tıklayın; bitişik haritalar için yeşil okları kullanın.


METAR-TAF: